sensor_id;sensor_type;location;lat;lon;timestamp;P1;durP1;ratioP1;P2;durP2;ratioP2
70953;SDS011;58618;47.490;8.736;2023-07-08T00:00:13;4.18;;;2.45;;
70953;SDS011;58618;47.490;8.736;2023-07-08T00:03:02;11.27;;;3.00;;
70953;SDS011;58618;47.490;8.736;2023-07-08T00:05:50;7.38;;;2.80;;
70953;SDS011;58618;47.490;8.736;2023-07-08T00:08:41;10.03;;;2.83;;
70953;SDS011;58618;47.490;8.736;2023-07-08T00:11:29;8.20;;;2.95;;
70953;SDS011;58618;47.490;8.736;2023-07-08T00:14:17;9.07;;;3.40;;
70953;SDS011;58618;47.490;8.736;2023-07-08T00:17:08;8.68;;;3.63;;
70953;SDS011;58618;47.490;8.736;2023-07-08T00:19:57;14.93;;;3.78;;
70953;SDS011;58618;47.490;8.736;2023-07-08T00:22:45;6.30;;;2.70;;
70953;SDS011;58618;47.490;8.736;2023-07-08T00:25:35;8.07;;;3.10;;
70953;SDS011;58618;47.490;8.736;2023-07-08T00:28:23;6.95;;;3.05;;
70953;SDS011;58618;47.490;8.736;2023-07-08T00:31:12;6.20;;;2.95;;
70953;SDS011;58618;47.490;8.736;2023-07-08T00:33:59;7.60;;;3.50;;
70953;SDS011;58618;47.490;8.736;2023-07-08T00:36:49;6.83;;;3.00;;
70953;SDS011;58618;47.490;8.736;2023-07-08T00:39:36;10.38;;;3.70;;
70953;SDS011;58618;47.490;8.736;2023-07-08T00:42:24;6.13;;;3.10;;
70953;SDS011;58618;47.490;8.736;2023-07-08T00:45:15;9.30;;;4.05;;
70953;SDS011;58618;47.490;8.736;2023-07-08T00:48:22;10.73;;;3.60;;
70953;SDS011;58618;47.490;8.736;2023-07-08T00:51:11;7.57;;;3.43;;
70953;SDS011;58618;47.490;8.736;2023-07-08T00:53:59;6.07;;;2.97;;
70953;SDS011;58618;47.490;8.736;2023-07-08T00:56:47;8.00;;;3.05;;
70953;SDS011;58618;47.490;8.736;2023-07-08T00:59:39;6.65;;;2.50;;
70953;SDS011;58618;47.490;8.736;2023-07-08T01:02:33;8.98;;;3.03;;
70953;SDS011;58618;47.490;8.736;2023-07-08T01:05:26;6.43;;;2.47;;
70953;SDS011;58618;47.490;8.736;2023-07-08T01:08:16;4.90;;;2.25;;
70953;SDS011;58618;47.490;8.736;2023-07-08T01:11:04;8.00;;;2.42;;
70953;SDS011;58618;47.490;8.736;2023-07-08T01:13:51;7.78;;;2.28;;
70953;SDS011;58618;47.490;8.736;2023-07-08T01:16:39;6.10;;;2.30;;
70953;SDS011;58618;47.490;8.736;2023-07-08T01:19:27;9.53;;;2.53;;
70953;SDS011;58618;47.490;8.736;2023-07-08T01:22:20;4.88;;;2.05;;
70953;SDS011;58618;47.490;8.736;2023-07-08T01:25:07;9.35;;;2.90;;
70953;SDS011;58618;47.490;8.736;2023-07-08T01:27:56;8.60;;;2.58;;
70953;SDS011;58618;47.490;8.736;2023-07-08T01:30:44;6.18;;;2.33;;
70953;SDS011;58618;47.490;8.736;2023-07-08T01:33:33;5.77;;;2.20;;
70953;SDS011;58618;47.490;8.736;2023-07-08T01:36:20;5.65;;;2.70;;
70953;SDS011;58618;47.490;8.736;2023-07-08T01:39:11;6.55;;;2.35;;
70953;SDS011;58618;47.490;8.736;2023-07-08T01:42:01;5.72;;;2.13;;
70953;SDS011;58618;47.490;8.736;2023-07-08T01:44:49;5.35;;;1.77;;
70953;SDS011;58618;47.490;8.736;2023-07-08T01:47:36;4.40;;;1.80;;
70953;SDS011;58618;47.490;8.736;2023-07-08T01:50:24;4.35;;;1.67;;
70953;SDS011;58618;47.490;8.736;2023-07-08T01:53:15;5.88;;;2.10;;
70953;SDS011;58618;47.490;8.736;2023-07-08T01:56:05;4.25;;;1.80;;
70953;SDS011;58618;47.490;8.736;2023-07-08T01:58:52;4.13;;;1.60;;
70953;SDS011;58618;47.490;8.736;2023-07-08T02:01:40;4.40;;;1.97;;
70953;SDS011;58618;47.490;8.736;2023-07-08T02:04:27;3.38;;;1.80;;
70953;SDS011;58618;47.490;8.736;2023-07-08T02:07:16;4.18;;;1.95;;
70953;SDS011;58618;47.490;8.736;2023-07-08T02:10:03;3.60;;;1.60;;
70953;SDS011;58618;47.490;8.736;2023-07-08T02:12:53;4.00;;;2.00;;
70953;SDS011;58618;47.490;8.736;2023-07-08T02:15:40;3.80;;;1.80;;
70953;SDS011;58618;47.490;8.736;2023-07-08T02:18:27;5.28;;;2.20;;
70953;SDS011;58618;47.490;8.736;2023-07-08T02:21:18;3.70;;;1.90;;
70953;SDS011;58618;47.490;8.736;2023-07-08T02:24:05;6.50;;;2.15;;
70953;SDS011;58618;47.490;8.736;2023-07-08T02:26:53;3.58;;;1.90;;
70953;SDS011;58618;47.490;8.736;2023-07-08T02:29:42;5.70;;;1.93;;
70953;SDS011;58618;47.490;8.736;2023-07-08T02:32:29;5.78;;;2.13;;
70953;SDS011;58618;47.490;8.736;2023-07-08T02:35:20;4.95;;;2.33;;
70953;SDS011;58618;47.490;8.736;2023-07-08T02:38:07;3.10;;;1.90;;
70953;SDS011;58618;47.490;8.736;2023-07-08T02:40:55;5.82;;;2.13;;
70953;SDS011;58618;47.490;8.736;2023-07-08T02:43:42;4.80;;;2.27;;
70953;SDS011;58618;47.490;8.736;2023-07-08T02:46:31;4.63;;;1.77;;
70953;SDS011;58618;47.490;8.736;2023-07-08T02:49:19;4.00;;;1.83;;
70953;SDS011;58618;47.490;8.736;2023-07-08T02:52:07;5.72;;;1.80;;
70953;SDS011;58618;47.490;8.736;2023-07-08T02:54:54;4.05;;;2.40;;
70953;SDS011;58618;47.490;8.736;2023-07-08T02:57:41;4.90;;;2.53;;
70953;SDS011;58618;47.490;8.736;2023-07-08T03:00:28;10.00;;;2.88;;
70953;SDS011;58618;47.490;8.736;2023-07-08T03:03:17;3.95;;;2.05;;
70953;SDS011;58618;47.490;8.736;2023-07-08T03:06:04;5.15;;;2.17;;
70953;SDS011;58618;47.490;8.736;2023-07-08T03:08:52;4.75;;;3.05;;
70953;SDS011;58618;47.490;8.736;2023-07-08T03:11:39;3.90;;;1.93;;
70953;SDS011;58618;47.490;8.736;2023-07-08T03:14:27;6.50;;;1.95;;
70953;SDS011;58618;47.490;8.736;2023-07-08T03:17:14;4.13;;;2.30;;
70953;SDS011;58618;47.490;8.736;2023-07-08T03:20:04;3.03;;;2.10;;
70953;SDS011;58618;47.490;8.736;2023-07-08T03:22:52;4.05;;;2.47;;
70953;SDS011;58618;47.490;8.736;2023-07-08T03:25:39;6.93;;;2.20;;
70953;SDS011;58618;47.490;8.736;2023-07-08T03:28:28;6.93;;;2.47;;
70953;SDS011;58618;47.490;8.736;2023-07-08T03:31:15;5.65;;;1.95;;
70953;SDS011;58618;47.490;8.736;2023-07-08T03:34:03;4.03;;;2.70;;
70953;SDS011;58618;47.490;8.736;2023-07-08T03:36:52;3.80;;;2.20;;
70953;SDS011;58618;47.490;8.736;2023-07-08T03:39:39;3.60;;;1.90;;
70953;SDS011;58618;47.490;8.736;2023-07-08T03:42:26;6.65;;;2.53;;
70953;SDS011;58618;47.490;8.736;2023-07-08T03:45:13;4.13;;;2.28;;
70953;SDS011;58618;47.490;8.736;2023-07-08T03:48:01;4.63;;;2.15;;
70953;SDS011;58618;47.490;8.736;2023-07-08T03:50:48;5.82;;;2.55;;
70953;SDS011;58618;47.490;8.736;2023-07-08T03:53:38;4.37;;;2.40;;
70953;SDS011;58618;47.490;8.736;2023-07-08T03:56:25;5.93;;;2.50;;
70953;SDS011;58618;47.490;8.736;2023-07-08T03:59:12;6.15;;;2.60;;
70953;SDS011;58618;47.490;8.736;2023-07-08T04:02:00;7.68;;;2.70;;
70953;SDS011;58618;47.490;8.736;2023-07-08T04:04:48;5.00;;;2.63;;
70953;SDS011;58618;47.490;8.736;2023-07-08T04:07:36;5.60;;;2.50;;
70953;SDS011;58618;47.490;8.736;2023-07-08T04:10:25;5.60;;;2.30;;
70953;SDS011;58618;47.490;8.736;2023-07-08T04:13:12;7.45;;;3.05;;
70953;SDS011;58618;47.490;8.736;2023-07-08T04:16:00;6.28;;;3.10;;
70953;SDS011;58618;47.490;8.736;2023-07-08T04:18:50;9.32;;;2.80;;
70953;SDS011;58618;47.490;8.736;2023-07-08T04:21:39;7.53;;;2.80;;
70953;SDS011;58618;47.490;8.736;2023-07-08T04:24:26;5.32;;;2.70;;
70953;SDS011;58618;47.490;8.736;2023-07-08T04:27:16;6.03;;;2.65;;
70953;SDS011;58618;47.490;8.736;2023-07-08T04:30:04;6.57;;;2.90;;
70953;SDS011;58618;47.490;8.736;2023-07-08T04:32:53;6.38;;;2.50;;
70953;SDS011;58618;47.490;8.736;2023-07-08T04:35:42;8.37;;;3.00;;
70953;SDS011;58618;47.490;8.736;2023-07-08T04:38:30;5.65;;;2.65;;
70953;SDS011;58618;47.490;8.736;2023-07-08T04:41:18;6.57;;;2.70;;
70953;SDS011;58618;47.490;8.736;2023-07-08T04:44:06;4.55;;;2.40;;
70953;SDS011;58618;47.490;8.736;2023-07-08T04:46:54;4.22;;;2.20;;
70953;SDS011;58618;47.490;8.736;2023-07-08T04:49:43;6.67;;;2.10;;
70953;SDS011;58618;47.490;8.736;2023-07-08T04:52:30;4.13;;;2.45;;
70953;SDS011;58618;47.490;8.736;2023-07-08T04:55:18;8.52;;;2.30;;
70953;SDS011;58618;47.490;8.736;2023-07-08T04:58:05;5.43;;;2.05;;
70953;SDS011;58618;47.490;8.736;2023-07-08T05:00:54;4.30;;;2.00;;
70953;SDS011;58618;47.490;8.736;2023-07-08T05:03:41;3.57;;;1.70;;
70953;SDS011;58618;47.490;8.736;2023-07-08T05:06:29;5.05;;;1.60;;
70953;SDS011;58618;47.490;8.736;2023-07-08T05:09:16;4.28;;;1.75;;
70953;SDS011;58618;47.490;8.736;2023-07-08T05:12:04;4.78;;;2.22;;
70953;SDS011;58618;47.490;8.736;2023-07-08T05:14:52;4.55;;;1.85;;
70953;SDS011;58618;47.490;8.736;2023-07-08T05:17:41;3.43;;;1.77;;
70953;SDS011;58618;47.490;8.736;2023-07-08T05:20:28;2.92;;;1.85;;
70953;SDS011;58618;47.490;8.736;2023-07-08T05:23:18;4.75;;;1.80;;
70953;SDS011;58618;47.490;8.736;2023-07-08T05:26:06;3.88;;;2.00;;
70953;SDS011;58618;47.490;8.736;2023-07-08T05:28:54;2.90;;;1.60;;
70953;SDS011;58618;47.490;8.736;2023-07-08T05:31:41;4.67;;;1.63;;
70953;SDS011;58618;47.490;8.736;2023-07-08T05:34:29;6.50;;;1.85;;
70953;SDS011;58618;47.490;8.736;2023-07-08T05:37:17;3.63;;;1.90;;
70953;SDS011;58618;47.490;8.736;2023-07-08T05:40:07;3.58;;;1.85;;
70953;SDS011;58618;47.490;8.736;2023-07-08T05:42:55;4.55;;;1.88;;
70953;SDS011;58618;47.490;8.736;2023-07-08T05:45:43;3.10;;;1.70;;
70953;SDS011;58618;47.490;8.736;2023-07-08T05:48:30;3.92;;;2.00;;
70953;SDS011;58618;47.490;8.736;2023-07-08T05:51:20;2.75;;;1.80;;
70953;SDS011;58618;47.490;8.736;2023-07-08T05:54:07;3.92;;;1.80;;
70953;SDS011;58618;47.490;8.736;2023-07-08T05:56:54;4.55;;;1.73;;
70953;SDS011;58618;47.490;8.736;2023-07-08T05:59:41;3.87;;;1.90;;
70953;SDS011;58618;47.490;8.736;2023-07-08T06:02:29;4.22;;;1.70;;
70953;SDS011;58618;47.490;8.736;2023-07-08T06:05:17;4.28;;;1.80;;
70953;SDS011;58618;47.490;8.736;2023-07-08T06:08:06;4.38;;;1.85;;
70953;SDS011;58618;47.490;8.736;2023-07-08T06:10:54;2.80;;;1.60;;
70953;SDS011;58618;47.490;8.736;2023-07-08T06:13:41;3.30;;;1.77;;
70953;SDS011;58618;47.490;8.736;2023-07-08T06:16:29;3.70;;;1.58;;
70953;SDS011;58618;47.490;8.736;2023-07-08T06:19:16;3.22;;;1.70;;
70953;SDS011;58618;47.490;8.736;2023-07-08T06:22:04;4.15;;;1.80;;
70953;SDS011;58618;47.490;8.736;2023-07-08T06:24:53;2.97;;;1.60;;
70953;SDS011;58618;47.490;8.736;2023-07-08T06:27:40;5.47;;;1.80;;
70953;SDS011;58618;47.490;8.736;2023-07-08T06:30:28;3.53;;;1.80;;
70953;SDS011;58618;47.490;8.736;2023-07-08T06:33:15;4.45;;;1.58;;
70953;SDS011;58618;47.490;8.736;2023-07-08T06:36:02;3.45;;;1.52;;
70953;SDS011;58618;47.490;8.736;2023-07-08T06:38:50;3.17;;;1.70;;
70953;SDS011;58618;47.490;8.736;2023-07-08T06:41:38;4.10;;;1.80;;
70953;SDS011;58618;47.490;8.736;2023-07-08T06:44:26;2.92;;;1.58;;
70953;SDS011;58618;47.490;8.736;2023-07-08T06:47:13;4.30;;;1.80;;
70953;SDS011;58618;47.490;8.736;2023-07-08T06:50:00;3.63;;;1.50;;
70953;SDS011;58618;47.490;8.736;2023-07-08T06:52:48;2.20;;;1.45;;
70953;SDS011;58618;47.490;8.736;2023-07-08T06:55:35;1.90;;;1.30;;
70953;SDS011;58618;47.490;8.736;2023-07-08T06:58:24;3.75;;;1.65;;
70953;SDS011;58618;47.490;8.736;2023-07-08T07:01:11;2.83;;;1.58;;
70953;SDS011;58618;47.490;8.736;2023-07-08T07:03:59;3.47;;;1.42;;
70953;SDS011;58618;47.490;8.736;2023-07-08T07:06:47;3.60;;;1.52;;
70953;SDS011;58618;47.490;8.736;2023-07-08T07:09:34;5.30;;;1.70;;
70953;SDS011;58618;47.490;8.736;2023-07-08T07:12:24;2.95;;;1.40;;
70953;SDS011;58618;47.490;8.736;2023-07-08T07:15:15;2.10;;;1.38;;
70953;SDS011;58618;47.490;8.736;2023-07-08T07:18:02;2.55;;;1.55;;
70953;SDS011;58618;47.490;8.736;2023-07-08T07:20:52;3.58;;;1.40;;
70953;SDS011;58618;47.490;8.736;2023-07-08T07:23:41;2.80;;;1.30;;
70953;SDS011;58618;47.490;8.736;2023-07-08T07:26:28;2.33;;;1.20;;
70953;SDS011;58618;47.490;8.736;2023-07-08T07:29:16;2.90;;;1.27;;
70953;SDS011;58618;47.490;8.736;2023-07-08T07:32:06;2.22;;;1.20;;
70953;SDS011;58618;47.490;8.736;2023-07-08T07:34:54;3.08;;;1.50;;
70953;SDS011;58618;47.490;8.736;2023-07-08T07:37:43;2.87;;;1.40;;
70953;SDS011;58618;47.490;8.736;2023-07-08T07:40:31;2.63;;;1.50;;
70953;SDS011;58618;47.490;8.736;2023-07-08T07:43:18;2.60;;;1.40;;
70953;SDS011;58618;47.490;8.736;2023-07-08T07:46:05;2.88;;;1.40;;
70953;SDS011;58618;47.490;8.736;2023-07-08T07:48:55;2.67;;;1.50;;
70953;SDS011;58618;47.490;8.736;2023-07-08T07:51:42;2.77;;;1.20;;
70953;SDS011;58618;47.490;8.736;2023-07-08T07:54:29;2.97;;;1.48;;
70953;SDS011;58618;47.490;8.736;2023-07-08T07:57:17;2.95;;;1.48;;
70953;SDS011;58618;47.490;8.736;2023-07-08T08:00:04;4.13;;;1.58;;
70953;SDS011;58618;47.490;8.736;2023-07-08T08:02:53;4.25;;;1.50;;
70953;SDS011;58618;47.490;8.736;2023-07-08T08:05:41;1.97;;;1.40;;
70953;SDS011;58618;47.490;8.736;2023-07-08T08:08:28;2.58;;;1.50;;
70953;SDS011;58618;47.490;8.736;2023-07-08T08:11:16;3.80;;;1.30;;
70953;SDS011;58618;47.490;8.736;2023-07-08T08:14:03;3.53;;;1.70;;
70953;SDS011;58618;47.490;8.736;2023-07-08T08:16:51;2.60;;;1.45;;
70953;SDS011;58618;47.490;8.736;2023-07-08T08:19:38;4.00;;;1.60;;
70953;SDS011;58618;47.490;8.736;2023-07-08T08:22:26;4.13;;;1.48;;
70953;SDS011;58618;47.490;8.736;2023-07-08T08:25:14;3.00;;;1.42;;
70953;SDS011;58618;47.490;8.736;2023-07-08T08:28:02;6.38;;;1.60;;
70953;SDS011;58618;47.490;8.736;2023-07-08T08:30:49;3.03;;;1.15;;
70953;SDS011;58618;47.490;8.736;2023-07-08T08:33:37;2.47;;;1.50;;
70953;SDS011;58618;47.490;8.736;2023-07-08T08:36:25;2.60;;;1.50;;
70953;SDS011;58618;47.490;8.736;2023-07-08T08:39:13;4.07;;;1.60;;
70953;SDS011;58618;47.490;8.736;2023-07-08T08:42:01;3.97;;;1.83;;
70953;SDS011;58618;47.490;8.736;2023-07-08T08:44:48;3.60;;;1.80;;
70953;SDS011;58618;47.490;8.736;2023-07-08T08:47:37;3.33;;;1.70;;
70953;SDS011;58618;47.490;8.736;2023-07-08T08:50:30;3.78;;;1.85;;
70953;SDS011;58618;47.490;8.736;2023-07-08T08:53:19;3.70;;;1.85;;
70953;SDS011;58618;47.490;8.736;2023-07-08T08:56:11;3.20;;;1.73;;
70953;SDS011;58618;47.490;8.736;2023-07-08T08:59:06;2.83;;;1.60;;
70953;SDS011;58618;47.490;8.736;2023-07-08T09:02:07;4.67;;;1.60;;
70953;SDS011;58618;47.490;8.736;2023-07-08T09:05:10;4.15;;;1.63;;
70953;SDS011;58618;47.490;8.736;2023-07-08T09:08:00;4.00;;;1.55;;
70953;SDS011;58618;47.490;8.736;2023-07-08T09:10:58;3.22;;;1.58;;
70953;SDS011;58618;47.490;8.736;2023-07-08T09:13:52;4.78;;;1.90;;
70953;SDS011;58618;47.490;8.736;2023-07-08T09:16:40;3.03;;;1.43;;
70953;SDS011;58618;47.490;8.736;2023-07-08T09:19:35;3.58;;;1.60;;
70953;SDS011;58618;47.490;8.736;2023-07-08T09:22:31;2.53;;;1.58;;
70953;SDS011;58618;47.490;8.736;2023-07-08T09:25:24;3.97;;;1.90;;
70953;SDS011;58618;47.490;8.736;2023-07-08T09:28:16;2.05;;;1.42;;
70953;SDS011;58618;47.490;8.736;2023-07-08T09:31:05;1.87;;;1.23;;
70953;SDS011;58618;47.490;8.736;2023-07-08T09:34:04;3.47;;;1.73;;
70953;SDS011;58618;47.490;8.736;2023-07-08T09:36:53;2.63;;;1.50;;
70953;SDS011;58618;47.490;8.736;2023-07-08T09:39:40;2.97;;;1.60;;
70953;SDS011;58618;47.490;8.736;2023-07-08T09:42:29;3.20;;;1.60;;
70953;SDS011;58618;47.490;8.736;2023-07-08T09:45:18;2.27;;;1.40;;
70953;SDS011;58618;47.490;8.736;2023-07-08T09:48:15;4.28;;;2.22;;
70953;SDS011;58618;47.490;8.736;2023-07-08T09:51:04;3.22;;;1.50;;
70953;SDS011;58618;47.490;8.736;2023-07-08T09:53:53;4.45;;;1.92;;
70953;SDS011;58618;47.490;8.736;2023-07-08T09:56:42;4.55;;;1.60;;
70953;SDS011;58618;47.490;8.736;2023-07-08T09:59:31;5.23;;;1.63;;
70953;SDS011;58618;47.490;8.736;2023-07-08T10:02:27;2.88;;;1.42;;
70953;SDS011;58618;47.490;8.736;2023-07-08T10:05:20;3.08;;;1.50;;
70953;SDS011;58618;47.490;8.736;2023-07-08T10:08:12;3.45;;;1.70;;
70953;SDS011;58618;47.490;8.736;2023-07-08T10:11:03;3.47;;;1.65;;
70953;SDS011;58618;47.490;8.736;2023-07-08T10:14:01;3.40;;;1.70;;
70953;SDS011;58618;47.490;8.736;2023-07-08T10:16:53;5.47;;;2.45;;
70953;SDS011;58618;47.490;8.736;2023-07-08T10:19:41;2.60;;;1.58;;
70953;SDS011;58618;47.490;8.736;2023-07-08T10:22:33;3.22;;;1.70;;
70953;SDS011;58618;47.490;8.736;2023-07-08T10:25:28;4.38;;;1.67;;
70953;SDS011;58618;47.490;8.736;2023-07-08T10:28:26;3.40;;;1.60;;
70953;SDS011;58618;47.490;8.736;2023-07-08T10:31:23;2.85;;;1.58;;
70953;SDS011;58618;47.490;8.736;2023-07-08T10:34:28;2.58;;;1.50;;
70953;SDS011;58618;47.490;8.736;2023-07-08T10:37:26;2.60;;;1.50;;
70953;SDS011;58618;47.490;8.736;2023-07-08T10:40:21;3.25;;;1.88;;
70953;SDS011;58618;47.490;8.736;2023-07-08T10:43:29;6.67;;;1.70;;
70953;SDS011;58618;47.490;8.736;2023-07-08T10:46:31;3.47;;;1.55;;
70953;SDS011;58618;47.490;8.736;2023-07-08T10:49:34;4.20;;;1.90;;
70953;SDS011;58618;47.490;8.736;2023-07-08T10:52:39;3.80;;;2.30;;
70953;SDS011;58618;47.490;8.736;2023-07-08T10:55:40;3.88;;;1.80;;
70953;SDS011;58618;47.490;8.736;2023-07-08T10:58:52;4.40;;;2.20;;
70953;SDS011;58618;47.490;8.736;2023-07-08T11:01:59;4.68;;;2.05;;
70953;SDS011;58618;47.490;8.736;2023-07-08T11:05:15;4.80;;;2.38;;
70953;SDS011;58618;47.490;8.736;2023-07-08T11:08:18;4.97;;;1.90;;
70953;SDS011;58618;47.490;8.736;2023-07-08T11:11:12;4.85;;;2.03;;
70953;SDS011;58618;47.490;8.736;2023-07-08T11:14:09;4.87;;;2.50;;
70953;SDS011;58618;47.490;8.736;2023-07-08T11:17:03;3.25;;;2.03;;
70953;SDS011;58618;47.490;8.736;2023-07-08T11:19:57;3.70;;;2.13;;
70953;SDS011;58618;47.490;8.736;2023-07-08T11:22:49;3.83;;;2.17;;
70953;SDS011;58618;47.490;8.736;2023-07-08T11:25:41;3.70;;;2.55;;
70953;SDS011;58618;47.490;8.736;2023-07-08T11:28:32;3.77;;;1.87;;
70953;SDS011;58618;47.490;8.736;2023-07-08T11:31:19;4.63;;;2.10;;
70953;SDS011;58618;47.490;8.736;2023-07-08T11:34:09;4.82;;;2.05;;
70953;SDS011;58618;47.490;8.736;2023-07-08T11:36:59;4.10;;;2.22;;
70953;SDS011;58618;47.490;8.736;2023-07-08T11:39:52;5.35;;;2.22;;
70953;SDS011;58618;47.490;8.736;2023-07-08T11:42:41;3.93;;;2.20;;
70953;SDS011;58618;47.490;8.736;2023-07-08T11:45:33;5.47;;;2.13;;
70953;SDS011;58618;47.490;8.736;2023-07-08T11:48:24;5.35;;;2.30;;
70953;SDS011;58618;47.490;8.736;2023-07-08T11:51:16;4.15;;;2.47;;
70953;SDS011;58618;47.490;8.736;2023-07-08T11:54:11;4.45;;;2.30;;
70953;SDS011;58618;47.490;8.736;2023-07-08T11:57:00;3.60;;;2.10;;
70953;SDS011;58618;47.490;8.736;2023-07-08T12:00:05;6.00;;;2.30;;
70953;SDS011;58618;47.490;8.736;2023-07-08T12:03:18;4.95;;;2.25;;
70953;SDS011;58618;47.490;8.736;2023-07-08T12:09:35;4.97;;;2.20;;
70953;SDS011;58618;47.490;8.736;2023-07-08T12:12:24;4.60;;;2.20;;
70953;SDS011;58618;47.490;8.736;2023-07-08T12:15:17;3.40;;;1.90;;
70953;SDS011;58618;47.490;8.736;2023-07-08T12:18:11;3.58;;;2.25;;
70953;SDS011;58618;47.490;8.736;2023-07-08T12:21:02;6.15;;;2.78;;
70953;SDS011;58618;47.490;8.736;2023-07-08T12:23:50;4.90;;;2.10;;
70953;SDS011;58618;47.490;8.736;2023-07-08T12:26:37;4.40;;;2.20;;
70953;SDS011;58618;47.490;8.736;2023-07-08T12:29:25;5.40;;;2.00;;
70953;SDS011;58618;47.490;8.736;2023-07-08T12:32:13;4.18;;;2.20;;
70953;SDS011;58618;47.490;8.736;2023-07-08T12:35:01;3.30;;;1.90;;
70953;SDS011;58618;47.490;8.736;2023-07-08T12:37:52;4.55;;;2.22;;
70953;SDS011;58618;47.490;8.736;2023-07-08T12:40:41;3.80;;;1.97;;
70953;SDS011;58618;47.490;8.736;2023-07-08T12:43:28;6.85;;;2.63;;
70953;SDS011;58618;47.490;8.736;2023-07-08T12:46:17;4.00;;;2.13;;
70953;SDS011;58618;47.490;8.736;2023-07-08T12:49:05;6.07;;;2.45;;
70953;SDS011;58618;47.490;8.736;2023-07-08T12:51:53;11.13;;;6.07;;
70953;SDS011;58618;47.490;8.736;2023-07-08T12:54:42;4.27;;;2.30;;
70953;SDS011;58618;47.490;8.736;2023-07-08T12:57:29;6.75;;;2.15;;
70953;SDS011;58618;47.490;8.736;2023-07-08T13:00:18;4.57;;;2.38;;
70953;SDS011;58618;47.490;8.736;2023-07-08T13:03:12;3.42;;;2.30;;
70953;SDS011;58618;47.490;8.736;2023-07-08T13:06:02;4.10;;;2.50;;
70953;SDS011;58618;47.490;8.736;2023-07-08T13:08:50;6.20;;;2.30;;
70953;SDS011;58618;47.490;8.736;2023-07-08T13:11:39;4.13;;;2.28;;
70953;SDS011;58618;47.490;8.736;2023-07-08T13:14:28;3.20;;;1.90;;
70953;SDS011;58618;47.490;8.736;2023-07-08T13:17:16;5.78;;;2.00;;
70953;SDS011;58618;47.490;8.736;2023-07-08T13:20:04;5.20;;;2.53;;
70953;SDS011;58618;47.490;8.736;2023-07-08T13:22:54;3.93;;;2.37;;
70953;SDS011;58618;47.490;8.736;2023-07-08T13:25:46;4.70;;;2.05;;
70953;SDS011;58618;47.490;8.736;2023-07-08T13:28:37;2.85;;;2.08;;
70953;SDS011;58618;47.490;8.736;2023-07-08T13:31:25;3.67;;;2.17;;
70953;SDS011;58618;47.490;8.736;2023-07-08T13:34:19;5.18;;;2.58;;
70953;SDS011;58618;47.490;8.736;2023-07-08T13:37:11;4.83;;;2.73;;
70953;SDS011;58618;47.490;8.736;2023-07-08T13:39:59;7.25;;;2.50;;
70953;SDS011;58618;47.490;8.736;2023-07-08T13:42:48;4.68;;;2.20;;
70953;SDS011;58618;47.490;8.736;2023-07-08T13:45:42;5.88;;;2.15;;
70953;SDS011;58618;47.490;8.736;2023-07-08T13:48:34;4.78;;;2.40;;
70953;SDS011;58618;47.490;8.736;2023-07-08T13:51:24;4.63;;;2.13;;
70953;SDS011;58618;47.490;8.736;2023-07-08T13:54:19;4.00;;;2.05;;
70953;SDS011;58618;47.490;8.736;2023-07-08T13:57:09;4.95;;;2.05;;
70953;SDS011;58618;47.490;8.736;2023-07-08T13:59:58;2.22;;;1.70;;
70953;SDS011;58618;47.490;8.736;2023-07-08T14:02:46;3.92;;;1.98;;
70953;SDS011;58618;47.490;8.736;2023-07-08T14:05:36;3.30;;;1.97;;
70953;SDS011;58618;47.490;8.736;2023-07-08T14:08:24;3.15;;;1.95;;
70953;SDS011;58618;47.490;8.736;2023-07-08T14:11:11;2.47;;;1.85;;
70953;SDS011;58618;47.490;8.736;2023-07-08T14:13:58;3.05;;;1.80;;
70953;SDS011;58618;47.490;8.736;2023-07-08T14:16:46;3.08;;;1.90;;
70953;SDS011;58618;47.490;8.736;2023-07-08T14:19:36;3.77;;;1.67;;
70953;SDS011;58618;47.490;8.736;2023-07-08T14:22:25;4.43;;;1.98;;
70953;SDS011;58618;47.490;8.736;2023-07-08T14:25:13;3.83;;;1.90;;
70953;SDS011;58618;47.490;8.736;2023-07-08T14:28:02;3.22;;;1.90;;
70953;SDS011;58618;47.490;8.736;2023-07-08T14:30:51;3.40;;;1.95;;
70953;SDS011;58618;47.490;8.736;2023-07-08T14:33:39;2.93;;;1.90;;
70953;SDS011;58618;47.490;8.736;2023-07-08T14:36:28;3.72;;;2.05;;
70953;SDS011;58618;47.490;8.736;2023-07-08T14:39:16;3.08;;;2.03;;
70953;SDS011;58618;47.490;8.736;2023-07-08T14:42:04;2.97;;;1.70;;
70953;SDS011;58618;47.490;8.736;2023-07-08T14:44:52;3.78;;;2.25;;
70953;SDS011;58618;47.490;8.736;2023-07-08T14:47:39;5.63;;;1.83;;
70953;SDS011;58618;47.490;8.736;2023-07-08T14:50:26;4.32;;;2.05;;
70953;SDS011;58618;47.490;8.736;2023-07-08T14:53:17;3.45;;;2.08;;
70953;SDS011;58618;47.490;8.736;2023-07-08T14:56:07;4.72;;;1.90;;
70953;SDS011;58618;47.490;8.736;2023-07-08T14:59:00;3.60;;;2.03;;
70953;SDS011;58618;47.490;8.736;2023-07-08T15:01:48;4.97;;;2.10;;
70953;SDS011;58618;47.490;8.736;2023-07-08T15:04:36;3.47;;;1.85;;
70953;SDS011;58618;47.490;8.736;2023-07-08T15:07:23;3.03;;;1.88;;
70953;SDS011;58618;47.490;8.736;2023-07-08T15:10:12;4.43;;;2.00;;
70953;SDS011;58618;47.490;8.736;2023-07-08T15:12:59;3.90;;;2.00;;
70953;SDS011;58618;47.490;8.736;2023-07-08T15:15:47;13.30;;;2.10;;
70953;SDS011;58618;47.490;8.736;2023-07-08T15:18:34;4.30;;;2.15;;
70953;SDS011;58618;47.490;8.736;2023-07-08T15:21:22;3.47;;;2.17;;
70953;SDS011;58618;47.490;8.736;2023-07-08T15:24:10;2.53;;;1.70;;
70953;SDS011;58618;47.490;8.736;2023-07-08T15:27:00;3.90;;;2.03;;
70953;SDS011;58618;47.490;8.736;2023-07-08T15:29:50;4.77;;;2.20;;
70953;SDS011;58618;47.490;8.736;2023-07-08T15:32:37;3.42;;;1.88;;
70953;SDS011;58618;47.490;8.736;2023-07-08T15:35:25;5.68;;;2.05;;
70953;SDS011;58618;47.490;8.736;2023-07-08T15:38:16;4.45;;;2.20;;
70953;SDS011;58618;47.490;8.736;2023-07-08T15:41:03;4.03;;;1.77;;
70953;SDS011;58618;47.490;8.736;2023-07-08T15:43:53;2.70;;;1.77;;
70953;SDS011;58618;47.490;8.736;2023-07-08T15:46:42;2.35;;;1.60;;
70953;SDS011;58618;47.490;8.736;2023-07-08T15:49:31;4.20;;;2.08;;
70953;SDS011;58618;47.490;8.736;2023-07-08T15:52:19;8.18;;;5.57;;
70953;SDS011;58618;47.490;8.736;2023-07-08T15:55:07;4.13;;;2.30;;
70953;SDS011;58618;47.490;8.736;2023-07-08T15:57:56;3.97;;;2.10;;
70953;SDS011;58618;47.490;8.736;2023-07-08T16:00:47;3.38;;;1.90;;
70953;SDS011;58618;47.490;8.736;2023-07-08T16:03:35;5.35;;;2.20;;
70953;SDS011;58618;47.490;8.736;2023-07-08T16:06:26;5.25;;;2.78;;
70953;SDS011;58618;47.490;8.736;2023-07-08T16:09:13;5.63;;;2.17;;
70953;SDS011;58618;47.490;8.736;2023-07-08T16:12:01;6.53;;;2.23;;
70953;SDS011;58618;47.490;8.736;2023-07-08T16:14:49;4.22;;;1.98;;
70953;SDS011;58618;47.490;8.736;2023-07-08T16:17:38;3.10;;;2.10;;
70953;SDS011;58618;47.490;8.736;2023-07-08T16:20:25;5.57;;;2.30;;
70953;SDS011;58618;47.490;8.736;2023-07-08T16:23:14;3.55;;;2.00;;
70953;SDS011;58618;47.490;8.736;2023-07-08T16:26:02;4.37;;;2.10;;
70953;SDS011;58618;47.490;8.736;2023-07-08T16:28:50;4.32;;;2.50;;
70953;SDS011;58618;47.490;8.736;2023-07-08T16:31:39;4.18;;;2.45;;
70953;SDS011;58618;47.490;8.736;2023-07-08T16:34:27;4.57;;;2.03;;
70953;SDS011;58618;47.490;8.736;2023-07-08T16:37:15;4.00;;;2.25;;
70953;SDS011;58618;47.490;8.736;2023-07-08T16:40:02;4.53;;;2.20;;
70953;SDS011;58618;47.490;8.736;2023-07-08T16:42:51;4.35;;;2.05;;
70953;SDS011;58618;47.490;8.736;2023-07-08T16:45:41;4.28;;;2.40;;
70953;SDS011;58618;47.490;8.736;2023-07-08T16:48:28;4.00;;;2.30;;
70953;SDS011;58618;47.490;8.736;2023-07-08T16:51:17;4.18;;;2.22;;
70953;SDS011;58618;47.490;8.736;2023-07-08T16:54:09;6.10;;;3.53;;
70953;SDS011;58618;47.490;8.736;2023-07-08T16:56:58;4.25;;;2.30;;
70953;SDS011;58618;47.490;8.736;2023-07-08T16:59:45;6.80;;;2.40;;
70953;SDS011;58618;47.490;8.736;2023-07-08T17:02:32;8.27;;;3.60;;
70953;SDS011;58618;47.490;8.736;2023-07-08T17:05:21;3.97;;;2.47;;